createdAt,value
2023-05-05T00:01:34.179Z,91.39
2023-05-05T00:04:01.659Z,91.55
2023-05-05T00:06:29.022Z,91.70
2023-05-05T00:08:56.309Z,91.44
2023-05-05T00:11:23.783Z,91.04
2023-05-05T00:13:51.466Z,91.19
2023-05-05T00:16:18.708Z,90.83
2023-05-05T00:18:46.144Z,90.81
2023-05-05T00:21:13.353Z,91.12
2023-05-05T00:23:40.467Z,90.90
2023-05-05T00:26:07.868Z,90.35
2023-05-05T00:28:35.072Z,90.26
2023-05-05T00:31:02.306Z,90.24
2023-05-05T00:33:29.857Z,90.22
2023-05-05T00:35:57.023Z,89.96
2023-05-05T00:38:24.092Z,90.07
2023-05-05T00:40:51.502Z,90.06
2023-05-05T00:43:18.677Z,90.43
2023-05-05T00:45:47.914Z,90.16
2023-05-05T00:48:17.005Z,90.76
2023-05-05T00:50:45.078Z,91.10
2023-05-05T00:53:12.270Z,91.11
2023-05-05T00:55:40.443Z,91.44
2023-05-05T00:58:07.950Z,91.62
2023-05-05T01:00:35.157Z,91.55
2023-05-05T01:03:03.217Z,91.29
2023-05-05T01:05:41.648Z,91.43
2023-05-05T01:08:44.395Z,91.24
2023-05-05T01:11:37.687Z,91.27
2023-05-05T01:14:24.719Z,91.60
2023-05-05T01:16:58.407Z,91.93
2023-05-05T01:19:59.512Z,91.84
2023-05-05T01:22:36.928Z,92.14
2023-05-05T01:25:27.134Z,92.17
2023-05-05T01:28:13.066Z,92.52
2023-05-05T01:31:25.945Z,92.43
2023-05-05T01:34:01.845Z,92.73
2023-05-05T01:36:34.828Z,92.81
2023-05-05T01:39:03.088Z,92.73
2023-05-05T01:41:47.032Z,92.61
2023-05-05T01:44:16.251Z,93.06
2023-05-05T01:46:43.607Z,93.38
2023-05-05T01:49:11.220Z,93.04
2023-05-05T01:51:39.215Z,93.15
2023-05-05T01:54:10.652Z,92.90
2023-05-05T01:56:39.169Z,93.04
2023-05-05T01:59:07.159Z,93.41
2023-05-05T02:01:37.473Z,93.71
2023-05-05T02:04:06.359Z,93.46
2023-05-05T02:06:33.995Z,93.21
2023-05-05T02:09:02.563Z,93.49
2023-05-05T02:11:30.155Z,93.74
2023-05-05T02:13:57.986Z,93.68
2023-05-05T02:16:25.566Z,93.71
2023-05-05T02:18:54.399Z,93.61
2023-05-05T02:21:22.797Z,93.31
2023-05-05T02:23:51.945Z,93.23
2023-05-05T02:26:21.779Z,93.33
2023-05-05T02:29:07.259Z,93.82
2023-05-05T02:31:38.370Z,93.61
2023-05-05T02:34:07.560Z,93.73
2023-05-05T02:36:38.687Z,93.98
2023-05-05T02:39:18.273Z,93.87
2023-05-05T02:41:47.327Z,93.90
2023-05-05T02:44:17.028Z,94.23
2023-05-05T02:46:44.405Z,94.14
2023-05-05T02:49:12.391Z,94.50
2023-05-05T02:51:40.925Z,94.60
2023-05-05T02:54:10.035Z,94.55
2023-05-05T02:56:41.312Z,94.49
2023-05-05T02:59:22.274Z,94.59
2023-05-05T03:02:09.278Z,95.02
2023-05-05T03:04:43.155Z,94.92
2023-05-05T03:07:14.423Z,94.78
2023-05-05T03:09:54.061Z,95.01
2023-05-05T03:12:27.944Z,94.81
2023-05-05T03:14:58.282Z,94.91
2023-05-05T03:17:28.139Z,95.08
2023-05-05T03:19:55.725Z,95.28
2023-05-05T03:22:23.189Z,95.27
2023-05-05T03:24:51.632Z,95.23
2023-05-05T03:27:20.456Z,95.23
2023-05-05T03:29:47.893Z,95.23
2023-05-05T03:32:15.797Z,95.27
2023-05-05T03:34:43.355Z,95.14
2023-05-05T03:37:10.564Z,95.19
2023-05-05T03:39:38.715Z,94.76
2023-05-05T03:42:06.969Z,94.80
2023-05-05T03:44:35.222Z,94.71
2023-05-05T03:47:02.868Z,94.68
2023-05-05T03:49:30.741Z,94.63
2023-05-05T03:51:58.090Z,94.89
2023-05-05T03:54:25.679Z,94.96
2023-05-05T03:56:52.866Z,95.05
2023-05-05T03:59:20.085Z,94.88
2023-05-05T04:01:48.998Z,95.19
2023-05-05T04:04:17.309Z,95.56
2023-05-05T04:06:44.546Z,94.53
2023-05-05T04:09:13.772Z,94.60
2023-05-05T04:11:41.317Z,93.62
2023-05-05T04:14:10.127Z,93.24
2023-05-05T04:16:37.862Z,94.72
2023-05-05T04:19:05.444Z,93.19
2023-05-05T04:21:32.800Z,91.60
2023-05-05T04:24:00.048Z,91.04
2023-05-05T04:26:27.798Z,88.17
2023-05-05T04:28:55.819Z,86.39
2023-05-05T04:31:23.319Z,85.16
2023-05-05T04:33:51.378Z,85.07
2023-05-05T04:36:19.245Z,81.74
2023-05-05T04:38:47.044Z,82.50
2023-05-05T04:41:14.535Z,83.81
2023-05-05T04:43:42.138Z,80.93
2023-05-05T04:46:09.376Z,79.10
2023-05-05T04:48:37.958Z,81.17
2023-05-05T04:51:06.451Z,83.07
2023-05-05T04:53:33.911Z,84.80
2023-05-05T04:56:02.622Z,85.37
2023-05-05T04:58:29.896Z,85.92
2023-05-05T05:00:57.489Z,86.44
2023-05-05T05:03:25.325Z,85.45
2023-05-05T05:05:53.196Z,84.86
2023-05-05T05:08:20.459Z,84.10
2023-05-05T05:10:48.028Z,83.38
2023-05-05T05:13:15.377Z,83.44
2023-05-05T05:15:42.917Z,78.18
2023-05-05T05:18:10.444Z,77.17
2023-05-05T05:20:38.653Z,77.62
2023-05-05T05:23:05.914Z,79.01
2023-05-05T05:25:33.669Z,76.36
2023-05-05T05:28:08.733Z,75.25
2023-05-05T05:30:38.294Z,76.92
2023-05-05T05:33:06.191Z,76.62
2023-05-05T05:35:33.638Z,75.50
2023-05-05T05:38:01.326Z,73.71
2023-05-05T05:40:28.579Z,75.15
2023-05-05T05:42:56.174Z,72.90
2023-05-05T05:45:23.940Z,71.73
2023-05-05T05:47:51.233Z,67.39
2023-05-05T05:50:18.721Z,68.31
2023-05-05T05:52:46.337Z,69.79
2023-05-05T05:55:13.660Z,70.35
2023-05-05T05:57:41.390Z,70.54
2023-05-05T06:00:09.939Z,72.29
2023-05-05T06:02:39.042Z,70.12
2023-05-05T06:05:08.039Z,67.22
2023-05-05T06:07:35.457Z,64.71
2023-05-05T06:10:14.403Z,69.28
2023-05-05T06:12:46.610Z,67.46
2023-05-05T06:15:13.850Z,66.00
2023-05-05T06:17:41.177Z,68.68
2023-05-05T06:20:09.342Z,66.46
2023-05-05T06:22:36.618Z,65.54
2023-05-05T06:25:04.332Z,65.45
2023-05-05T06:27:31.892Z,61.58
2023-05-05T06:29:59.072Z,65.74
2023-05-05T06:32:26.295Z,61.91
2023-05-05T06:34:53.753Z,67.30
2023-05-05T06:37:20.906Z,65.60
2023-05-05T06:39:47.996Z,59.83
2023-05-05T06:42:15.458Z,63.70
2023-05-05T06:44:42.631Z,63.81
2023-05-05T06:47:09.832Z,65.39
2023-05-05T06:49:37.298Z,64.45
2023-05-05T06:52:04.638Z,63.52
2023-05-05T06:54:31.788Z,64.06
2023-05-05T06:56:59.807Z,57.66
2023-05-05T06:59:27.027Z,62.63
2023-05-05T07:01:54.266Z,58.38
2023-05-05T07:04:21.633Z,60.22
2023-05-05T07:06:48.750Z,58.36
2023-05-05T07:09:17.100Z,59.42
2023-05-05T07:11:46.379Z,61.33
2023-05-05T07:14:13.583Z,58.34
2023-05-05T07:16:40.973Z,62.28
2023-05-05T07:19:08.516Z,57.13
2023-05-05T07:21:35.835Z,60.02
2023-05-05T07:24:03.551Z,56.69
2023-05-05T07:26:31.269Z,57.45
2023-05-05T07:28:58.967Z,61.18
2023-05-05T07:31:26.621Z,62.67
2023-05-05T07:33:54.192Z,63.13
2023-05-05T07:36:21.374Z,58.17
2023-05-05T07:38:48.435Z,58.61
2023-05-05T07:41:16.146Z,58.08
2023-05-05T07:43:44.665Z,56.57
2023-05-05T07:46:12.267Z,58.75
2023-05-05T07:48:41.602Z,59.78
2023-05-05T07:51:09.790Z,56.28
2023-05-05T07:53:37.328Z,56.04
2023-05-05T07:56:04.805Z,54.34
2023-05-05T07:58:32.038Z,57.17
2023-05-05T08:00:59.483Z,58.85
2023-05-05T08:03:27.194Z,60.15
2023-05-05T08:05:55.537Z,58.78
2023-05-05T08:08:26.946Z,55.12
2023-05-05T08:10:54.554Z,56.20
2023-05-05T08:13:21.741Z,56.83
2023-05-05T08:15:48.967Z,58.07
2023-05-05T08:18:16.328Z,57.97
2023-05-05T08:20:43.444Z,60.76
2023-05-05T08:23:10.565Z,62.43
2023-05-05T08:25:37.996Z,59.00
2023-05-05T08:28:05.153Z,56.03
2023-05-05T08:30:34.851Z,57.63
2023-05-05T08:33:02.295Z,58.71
2023-05-05T08:35:29.439Z,59.73
2023-05-05T08:37:58.930Z,59.51
2023-05-05T08:40:30.456Z,60.30
2023-05-05T08:42:57.554Z,59.57
2023-05-05T08:45:24.783Z,59.22
2023-05-05T08:47:52.219Z,59.07
2023-05-05T08:50:19.779Z,61.54
2023-05-05T08:52:51.154Z,58.69
2023-05-05T08:55:26.889Z,59.18
2023-05-05T08:57:57.798Z,60.16
2023-05-05T09:00:27.173Z,58.03
2023-05-05T09:02:59.398Z,57.89
2023-05-05T09:05:27.176Z,59.67
2023-05-05T09:07:54.383Z,59.39
2023-05-05T09:10:21.616Z,60.67
2023-05-05T09:12:51.128Z,59.72
2023-05-05T09:15:18.637Z,59.15
2023-05-05T09:17:46.565Z,58.42
2023-05-05T09:20:14.838Z,58.70
2023-05-05T09:22:47.083Z,55.17
2023-05-05T09:25:16.408Z,58.19
2023-05-05T09:27:47.237Z,55.82
2023-05-05T09:30:23.982Z,52.87
2023-05-05T09:32:53.136Z,54.39
2023-05-05T09:35:21.973Z,57.65
2023-05-05T09:37:49.265Z,57.65
2023-05-05T09:40:18.271Z,55.87
2023-05-05T09:42:46.165Z,54.33
2023-05-05T09:45:19.609Z,51.16
2023-05-05T09:47:47.686Z,53.39
2023-05-05T09:50:18.552Z,53.18
2023-05-05T09:52:57.229Z,55.06
2023-05-05T09:55:25.485Z,56.97
2023-05-05T09:57:52.968Z,53.28
2023-05-05T10:00:20.691Z,55.41
2023-05-05T10:02:48.206Z,55.93
2023-05-05T10:05:17.142Z,54.64
2023-05-05T10:07:45.824Z,57.22
2023-05-05T10:10:15.216Z,57.44
2023-05-05T10:12:43.127Z,54.67
2023-05-05T10:15:11.692Z,55.95
2023-05-05T10:18:05.198Z,54.44
2023-05-05T10:20:33.602Z,50.92
2023-05-05T10:23:02.793Z,53.24
2023-05-05T10:25:33.822Z,53.94
2023-05-05T10:28:06.445Z,52.49
2023-05-05T10:30:37.263Z,54.31
2023-05-05T10:33:30.167Z,51.48
2023-05-05T10:36:02.323Z,51.73
2023-05-05T10:38:33.921Z,50.96
2023-05-05T10:41:02.158Z,50.33
2023-05-05T10:43:30.791Z,50.75
2023-05-05T10:45:58.435Z,52.36
2023-05-05T10:48:35.058Z,53.30
2023-05-05T10:51:13.188Z,49.91
2023-05-05T10:53:46.717Z,50.81
2023-05-05T10:56:22.180Z,49.04
2023-05-05T10:58:59.263Z,51.10
2023-05-05T11:01:34.679Z,47.75
2023-05-05T11:04:21.983Z,45.55
2023-05-05T11:07:09.658Z,49.06
2023-05-05T11:09:57.464Z,47.39
2023-05-05T11:12:24.968Z,46.71
2023-05-05T11:15:26.487Z,49.35
2023-05-05T11:17:55.529Z,50.31
2023-05-05T11:20:43.675Z,49.17
2023-05-05T11:23:11.249Z,47.24
2023-05-05T11:25:40.537Z,48.23
2023-05-05T11:28:16.323Z,47.44
2023-05-05T11:30:59.405Z,45.45
2023-05-05T11:33:29.235Z,46.18
2023-05-05T11:36:01.828Z,46.70
2023-05-05T11:38:33.345Z,45.25
2023-05-05T11:41:08.089Z,48.86
2023-05-05T11:43:35.575Z,46.59
2023-05-05T11:46:13.559Z,47.20
2023-05-05T11:48:52.813Z,45.50
2023-05-05T11:51:20.337Z,48.79
2023-05-05T11:53:50.207Z,47.75
2023-05-05T11:56:19.667Z,45.10
2023-05-05T11:58:50.187Z,45.14
2023-05-05T12:01:17.469Z,45.51
2023-05-05T12:03:45.846Z,46.36
2023-05-05T12:06:13.451Z,44.42
2023-05-05T12:08:41.392Z,44.57
2023-05-05T12:11:10.683Z,44.40
2023-05-05T12:13:37.992Z,43.30
2023-05-05T12:16:12.827Z,43.83
2023-05-05T12:18:41.116Z,44.14
2023-05-05T12:21:20.868Z,46.28
2023-05-05T12:23:48.373Z,42.72
2023-05-05T12:26:29.241Z,43.80
2023-05-05T12:28:58.270Z,45.25
2023-05-05T12:31:39.059Z,44.16
2023-05-05T12:34:08.465Z,45.69
2023-05-05T12:36:36.301Z,44.80
2023-05-05T12:39:06.508Z,43.69
2023-05-05T12:41:34.399Z,44.15
2023-05-05T12:44:03.128Z,44.13
2023-05-05T12:46:31.869Z,43.29
2023-05-05T12:49:05.372Z,43.05
2023-05-05T12:51:33.402Z,44.69
2023-05-05T12:54:03.160Z,44.43
2023-05-05T12:56:33.449Z,45.49
2023-05-05T12:59:02.419Z,45.01
2023-05-05T13:01:30.224Z,43.93
2023-05-05T13:04:13.994Z,43.75
2023-05-05T13:06:42.582Z,44.82
2023-05-05T13:09:23.091Z,43.38
2023-05-05T13:11:50.629Z,42.72
2023-05-05T13:14:17.790Z,42.41
2023-05-05T13:16:44.977Z,42.46
2023-05-05T13:19:12.521Z,40.55
2023-05-05T13:21:39.669Z,41.10
2023-05-05T13:24:19.788Z,43.20
2023-05-05T13:26:53.499Z,42.05
2023-05-05T13:29:20.692Z,41.17
2023-05-05T13:31:47.890Z,43.16
2023-05-05T13:34:15.488Z,42.41
2023-05-05T13:36:42.675Z,41.76
2023-05-05T13:39:09.932Z,40.03
2023-05-05T13:41:37.390Z,42.48
2023-05-05T13:44:04.713Z,42.08
2023-05-05T13:46:31.942Z,42.77
2023-05-05T13:48:59.443Z,41.90
2023-05-05T13:51:26.693Z,41.18
2023-05-05T13:53:53.960Z,41.36
2023-05-05T13:56:23.483Z,43.17
2023-05-05T13:58:50.825Z,41.58
2023-05-05T14:01:18.077Z,42.95
2023-05-05T14:03:45.724Z,40.76
2023-05-05T14:06:12.909Z,41.19
2023-05-05T14:08:40.049Z,40.64
2023-05-05T14:11:07.475Z,41.18
2023-05-05T14:13:34.721Z,39.63
2023-05-05T14:16:02.125Z,39.68
2023-05-05T14:18:29.713Z,39.54
2023-05-05T14:20:56.934Z,39.75
2023-05-05T14:23:24.098Z,38.52
2023-05-05T14:25:51.541Z,38.27
2023-05-05T14:28:18.737Z,39.70
2023-05-05T14:30:46.379Z,40.21
2023-05-05T14:33:13.873Z,38.92
2023-05-05T14:35:41.170Z,37.86
2023-05-05T14:38:08.422Z,37.60
2023-05-05T14:40:35.919Z,38.60
2023-05-05T14:43:03.113Z,39.62
2023-05-05T14:45:30.285Z,36.98
2023-05-05T14:47:57.837Z,39.79
2023-05-05T14:50:24.969Z,39.21
2023-05-05T14:52:52.162Z,38.92
2023-05-05T14:55:19.692Z,38.00
2023-05-05T14:57:46.914Z,40.51
2023-05-05T15:00:14.547Z,39.40
2023-05-05T15:02:42.048Z,36.15
2023-05-05T15:05:10.478Z,36.96
2023-05-05T15:07:37.932Z,37.42
2023-05-05T15:10:06.363Z,38.26
2023-05-05T15:12:33.734Z,39.19
2023-05-05T15:15:00.927Z,40.16
2023-05-05T15:17:28.685Z,39.53
2023-05-05T15:19:55.883Z,37.76
2023-05-05T15:22:23.093Z,37.95
2023-05-05T15:24:50.629Z,37.26
2023-05-05T15:27:18.587Z,37.24
2023-05-05T15:29:46.253Z,37.88
2023-05-05T15:32:13.752Z,38.22
2023-05-05T15:34:40.950Z,38.43
2023-05-05T15:37:08.162Z,37.58
2023-05-05T15:39:35.670Z,39.04
2023-05-05T15:42:03.785Z,37.45
2023-05-05T15:44:31.695Z,37.25
2023-05-05T15:46:59.298Z,37.98
2023-05-05T15:49:26.623Z,37.42
2023-05-05T15:51:53.818Z,39.25
2023-05-05T15:54:21.401Z,39.33
2023-05-05T15:56:49.621Z,39.29
2023-05-05T15:59:16.833Z,39.11
2023-05-05T16:01:44.403Z,37.61
2023-05-05T16:04:12.101Z,38.89
2023-05-05T16:06:39.237Z,39.14
2023-05-05T16:09:06.337Z,39.37
2023-05-05T16:11:33.745Z,39.17
2023-05-05T16:14:00.852Z,38.85
2023-05-05T16:16:27.987Z,39.32
2023-05-05T16:18:55.430Z,39.81
2023-05-05T16:21:22.572Z,39.02
2023-05-05T16:23:49.699Z,39.07
2023-05-05T16:26:17.072Z,39.25
2023-05-05T16:28:44.134Z,38.52
2023-05-05T16:31:11.517Z,37.67
2023-05-05T16:33:40.934Z,38.40
2023-05-05T16:36:14.789Z,38.97
2023-05-05T16:38:42.183Z,38.71
2023-05-05T16:41:10.689Z,38.91
2023-05-05T16:43:37.844Z,38.02
2023-05-05T16:46:06.361Z,38.50
2023-05-05T16:48:33.495Z,38.40
2023-05-05T16:51:00.858Z,38.60
2023-05-05T16:53:28.247Z,38.49
2023-05-05T16:55:55.423Z,37.65
2023-05-05T16:58:22.936Z,38.53
2023-05-05T17:00:50.901Z,38.95
2023-05-05T17:03:19.253Z,39.13
2023-05-05T17:05:50.447Z,39.78
2023-05-05T17:08:17.940Z,42.12
2023-05-05T17:10:46.233Z,45.22
2023-05-05T17:13:14.453Z,44.98
2023-05-05T17:15:50.185Z,45.95
2023-05-05T17:18:20.153Z,46.94
2023-05-05T17:20:49.105Z,48.07
2023-05-05T17:23:16.691Z,49.65
2023-05-05T17:25:43.932Z,50.99
2023-05-05T17:28:11.432Z,52.29
2023-05-05T17:30:38.498Z,53.91
2023-05-05T17:33:05.782Z,54.42
2023-05-05T17:35:33.290Z,55.44
2023-05-05T17:38:00.476Z,56.49
2023-05-05T17:40:27.690Z,57.57
2023-05-05T17:42:55.103Z,58.67
2023-05-05T17:45:22.220Z,59.65
2023-05-05T17:47:49.338Z,60.45
2023-05-05T17:50:16.823Z,61.53
2023-05-05T17:52:45.074Z,62.58
2023-05-05T17:55:12.640Z,63.62
2023-05-05T17:57:40.290Z,64.37
2023-05-05T18:00:08.960Z,65.09
2023-05-05T18:02:39.816Z,65.50
2023-05-05T18:05:08.647Z,66.27
2023-05-05T18:07:35.957Z,66.99
2023-05-05T18:10:03.068Z,67.61
2023-05-05T18:12:30.535Z,67.93
2023-05-05T18:14:57.606Z,68.53
2023-05-05T18:17:24.747Z,69.06
2023-05-05T18:19:52.188Z,69.98
2023-05-05T18:22:19.417Z,70.30
2023-05-05T18:24:47.052Z,70.65
2023-05-05T18:27:14.437Z,71.11
2023-05-05T18:29:41.674Z,71.33
2023-05-05T18:32:10.138Z,71.12
2023-05-05T18:34:37.570Z,71.67
2023-05-05T18:37:04.649Z,71.65
2023-05-05T18:39:31.789Z,71.82
2023-05-05T18:41:59.380Z,72.05
2023-05-05T18:44:26.712Z,72.33
2023-05-05T18:46:53.901Z,72.65
2023-05-05T18:49:22.037Z,73.04
2023-05-05T18:51:49.152Z,73.70
2023-05-05T18:54:16.244Z,74.20
2023-05-05T18:56:43.620Z,74.57
2023-05-05T18:59:10.729Z,74.27
2023-05-05T19:01:37.823Z,74.45
2023-05-05T19:04:08.512Z,74.92
2023-05-05T19:06:40.028Z,75.23
2023-05-05T19:09:07.361Z,75.39
2023-05-05T19:11:34.476Z,76.10
2023-05-05T19:14:01.551Z,76.15
2023-05-05T19:16:30.127Z,76.56
2023-05-05T19:19:00.145Z,76.74
2023-05-05T19:21:27.742Z,76.83
2023-05-05T19:23:55.188Z,77.19
2023-05-05T19:26:24.382Z,77.45
2023-05-05T19:28:51.532Z,77.59
2023-05-05T19:31:18.978Z,77.93
2023-05-05T19:33:46.103Z,78.08
2023-05-05T19:36:13.255Z,78.28
2023-05-05T19:38:44.553Z,78.40
2023-05-05T19:41:12.312Z,78.15
2023-05-05T19:43:39.422Z,78.13
2023-05-05T19:46:06.864Z,78.78
2023-05-05T19:48:33.998Z,79.46
2023-05-05T19:51:01.126Z,79.80
2023-05-05T19:53:28.572Z,80.11
2023-05-05T19:55:55.840Z,79.52
2023-05-05T19:58:23.027Z,79.53
2023-05-05T20:00:50.497Z,80.21
2023-05-05T20:03:17.980Z,80.10
2023-05-05T20:05:45.163Z,80.20
2023-05-05T20:08:12.267Z,80.11
2023-05-05T20:10:39.627Z,80.37
2023-05-05T20:13:06.829Z,80.02
2023-05-05T20:15:34.051Z,79.66
2023-05-05T20:18:01.725Z,80.00
2023-05-05T20:20:28.990Z,80.72
2023-05-05T20:22:56.142Z,80.97
2023-05-05T20:25:23.676Z,80.74
2023-05-05T20:27:50.827Z,81.60
2023-05-05T20:30:18.104Z,81.85
2023-05-05T20:32:45.591Z,80.90
2023-05-05T20:35:13.067Z,80.72
2023-05-05T20:37:40.398Z,80.69
2023-05-05T20:40:08.714Z,80.58
2023-05-05T20:42:36.997Z,80.86
2023-05-05T20:45:04.982Z,81.19
2023-05-05T20:47:34.373Z,81.67
2023-05-05T20:50:01.585Z,82.04
2023-05-05T20:52:28.962Z,82.55
2023-05-05T20:54:56.408Z,82.59
2023-05-05T20:57:23.630Z,82.89
2023-05-05T20:59:50.775Z,83.57
2023-05-05T21:02:18.876Z,84.11
2023-05-05T21:04:46.151Z,84.01
2023-05-05T21:07:13.354Z,83.62
2023-05-05T21:09:40.933Z,84.13
2023-05-05T21:12:08.139Z,84.08
2023-05-05T21:14:35.866Z,84.25
2023-05-05T21:17:03.411Z,84.83
2023-05-05T21:19:30.676Z,84.95
2023-05-05T21:21:59.204Z,85.24
2023-05-05T21:24:28.026Z,85.19
2023-05-05T21:26:56.351Z,85.33
2023-05-05T21:29:24.770Z,85.59
2023-05-05T21:31:52.246Z,85.77
2023-05-05T21:34:20.174Z,84.91
2023-05-05T21:36:47.384Z,84.48
2023-05-05T21:39:14.878Z,84.52
2023-05-05T21:41:42.083Z,84.68
2023-05-05T21:44:09.263Z,84.81
2023-05-05T21:46:36.787Z,84.89
2023-05-05T21:49:20.255Z,84.96
2023-05-05T21:51:47.686Z,84.76
2023-05-05T21:54:14.854Z,84.82
2023-05-05T21:56:42.080Z,84.78
2023-05-05T21:59:09.539Z,84.55
2023-05-05T22:01:36.993Z,84.91
2023-05-05T22:04:04.731Z,85.62
2023-05-05T22:06:32.504Z,86.40
2023-05-05T22:08:59.788Z,86.83
2023-05-05T22:11:27.399Z,87.06
2023-05-05T22:13:54.493Z,87.82
2023-05-05T22:16:21.739Z,89.12
2023-05-05T22:18:49.689Z,89.29
2023-05-05T22:21:16.860Z,89.45
2023-05-05T22:23:44.040Z,89.19
2023-05-05T22:26:11.685Z,89.57
2023-05-05T22:28:38.859Z,89.90
2023-05-05T22:31:05.977Z,90.08
2023-05-05T22:33:33.407Z,90.21
2023-05-05T22:36:00.707Z,90.37
2023-05-05T22:38:27.797Z,90.13
2023-05-05T22:40:55.171Z,90.40
2023-05-05T22:43:22.282Z,90.96
2023-05-05T22:45:49.539Z,90.83
2023-05-05T22:48:16.965Z,90.51
2023-05-05T22:50:44.063Z,90.80
2023-05-05T22:53:11.174Z,91.42
2023-05-05T22:55:38.641Z,91.64
2023-05-05T22:58:06.336Z,91.85
2023-05-05T23:00:33.460Z,92.63
2023-05-05T23:03:00.965Z,93.02
2023-05-05T23:05:28.057Z,92.86
2023-05-05T23:07:55.171Z,92.69
2023-05-05T23:10:22.555Z,92.60
2023-05-05T23:12:49.682Z,93.28
2023-05-05T23:15:16.904Z,92.82
2023-05-05T23:17:44.354Z,92.92
2023-05-05T23:20:13.162Z,92.93
2023-05-05T23:22:40.337Z,93.27
2023-05-05T23:25:08.652Z,93.16
2023-05-05T23:27:35.947Z,92.56
2023-05-05T23:30:03.154Z,92.53
2023-05-05T23:32:30.775Z,92.47
2023-05-05T23:34:57.876Z,92.43
2023-05-05T23:37:25.593Z,93.00
2023-05-05T23:39:52.982Z,92.58
2023-05-05T23:42:20.086Z,92.59
2023-05-05T23:44:47.202Z,93.03
2023-05-05T23:47:14.629Z,93.44
2023-05-05T23:49:41.756Z,93.53
2023-05-05T23:52:09.478Z,92.80
2023-05-05T23:54:36.845Z,93.10
2023-05-05T23:57:04.010Z,93.32
2023-05-05T23:59:31.200Z,93.50
